Time;durP1;ratioP1;P1;durP2;ratioP2;P2;SDS_P1;SDS_P2;PMS_P1;PMS_P2;Temp;Humidity;BMP_temperature;BMP_pressure;BME280_temperature;BME280_humidity;BME280_pressure;Samples;Min_cycle;Max_cycle;Signal;HPM_P1;HPM_P2
2023/04/24 00:01:16;;;;;;;20.27;10.52;;;;;;;9.31;100.00;99827.91;5051241;28;20028;-74
2023/04/24 00:03:42;;;;;;;23.73;10.93;;;;;;;9.30;100.00;99820.88;5052649;28;20032;-74
2023/04/24 00:06:07;;;;;;;25.35;11.40;;;;;;;9.32;100.00;99829.63;5034046;28;20662;-74
2023/04/24 00:08:34;;;;;;;21.65;10.50;;;;;;;9.29;100.00;99824.53;5052554;28;20072;-73
2023/04/24 00:10:59;;;;;;;23.60;11.00;;;;;;;9.28;100.00;99828.16;5051047;28;21233;-74
2023/04/24 00:13:25;;;;;;;22.38;10.73;;;;;;;9.27;100.00;99826.50;5033989;28;20016;-74
2023/04/24 00:15:50;;;;;;;25.85;11.98;;;;;;;9.26;100.00;99822.09;5034078;28;20029;-74
2023/04/24 00:18:15;;;;;;;23.48;11.15;;;;;;;9.25;100.00;99831.13;5034837;28;20032;-74
2023/04/24 00:20:40;;;;;;;26.45;11.15;;;;;;;9.25;100.00;99828.44;5032792;28;20304;-73
2023/04/24 00:23:06;;;;;;;26.40;12.82;;;;;;;9.24;100.00;99824.06;5033596;28;20476;-74
2023/04/24 00:25:31;;;;;;;24.77;13.07;;;;;;;9.22;100.00;99839.41;5031823;28;20052;-74
2023/04/24 00:27:57;;;;;;;25.85;12.93;;;;;;;9.20;100.00;99822.63;5033524;28;20555;-73
2023/04/24 00:30:22;;;;;;;27.80;13.38;;;;;;;9.18;100.00;99821.88;5051335;28;20082;-75
2023/04/24 00:32:47;;;;;;;23.67;13.10;;;;;;;9.18;100.00;99836.16;5032810;28;20021;-73
2023/04/24 00:35:14;;;;;;;28.85;14.63;;;;;;;9.18;100.00;99837.97;5051642;28;20072;-73
2023/04/24 00:37:39;;;;;;;26.75;13.88;;;;;;;9.16;100.00;99839.94;5052636;28;20061;-74
2023/04/24 00:40:06;;;;;;;24.60;12.63;;;;;;;9.15;100.00;99847.13;5033473;28;20525;-74
2023/04/24 00:42:31;;;;;;;25.48;13.27;;;;;;;9.13;100.00;99845.56;5051093;28;20036;-73
2023/04/24 00:44:57;;;;;;;25.13;13.63;;;;;;;9.10;100.00;99852.84;5050791;28;20468;-74
2023/04/24 00:47:24;;;;;;;25.85;13.48;;;;;;;9.10;100.00;99849.34;5033655;28;20029;-74
2023/04/24 00:49:49;;;;;;;26.67;13.32;;;;;;;9.07;100.00;99839.72;5051488;28;20094;-74
2023/04/24 00:52:17;;;;;;;26.55;14.02;;;;;;;9.07;100.00;99839.72;5033773;28;20493;-74
2023/04/24 00:54:45;;;;;;;28.45;15.27;;;;;;;9.04;100.00;99837.28;5051058;28;20070;-74
2023/04/24 00:57:10;;;;;;;29.50;14.15;;;;;;;9.05;100.00;99847.03;5048777;28;20021;-74
2023/04/24 00:59:36;;;;;;;30.40;14.90;;;;;;;9.06;100.00;99845.22;5032703;28;20040;-74
2023/04/24 01:02:01;;;;;;;29.98;15.50;;;;;;;9.04;100.00;99845.34;5032051;28;20037;-77
2023/04/24 01:04:27;;;;;;;30.33;14.43;;;;;;;9.03;100.00;99848.97;5032299;28;20440;-78
2023/04/24 01:06:54;;;;;;;29.60;15.05;;;;;;;9.03;100.00;99850.81;5051372;28;20063;-78
2023/04/24 01:09:21;;;;;;;27.98;14.80;;;;;;;9.01;100.00;99842.91;5033409;28;20149;-78
2023/04/24 01:11:46;;;;;;;29.58;16.10;;;;;;;9.00;100.00;99835.84;5032593;28;20036;-78
2023/04/24 01:14:12;;;;;;;28.50;15.30;;;;;;;9.00;100.00;99840.38;5049922;28;20396;-78
2023/04/24 01:16:38;;;;;;;26.70;14.63;;;;;;;8.97;100.00;99841.47;5051145;28;20531;-78
2023/04/24 01:19:04;;;;;;;28.83;15.10;;;;;;;8.94;100.00;99840.88;5051015;28;20548;-78
2023/04/24 01:21:30;;;;;;;30.38;15.85;;;;;;;8.94;100.00;99847.06;5033092;28;20028;-77
2023/04/24 01:23:56;;;;;;;28.85;15.23;;;;;;;8.91;100.00;99842.81;5048521;28;20032;-77
2023/04/24 01:26:23;;;;;;;27.92;14.52;;;;;;;8.89;100.00;99838.59;5050918;28;20052;-77
2023/04/24 01:28:48;;;;;;;27.88;16.48;;;;;;;8.87;100.00;99841.38;5050475;28;20024;-77
2023/04/24 01:31:15;;;;;;;26.70;14.63;;;;;;;8.89;100.00;99841.25;5048106;28;20025;-77
2023/04/24 01:33:42;;;;;;;28.42;15.73;;;;;;;8.87;100.00;99836.03;5049210;28;20040;-77
2023/04/24 01:36:10;;;;;;;26.90;15.48;;;;;;;8.86;100.00;99847.72;5032532;28;20028;-77
2023/04/24 01:38:35;;;;;;;30.77;18.40;;;;;;;8.84;100.00;99835.41;5032726;28;20040;-77
2023/04/24 01:41:00;;;;;;;31.25;16.42;;;;;;;8.83;100.00;99839.06;5049481;28;20032;-77
2023/04/24 01:43:26;;;;;;;34.95;18.98;;;;;;;8.82;100.00;99837.38;5047343;28;20437;-77
2023/04/24 01:45:51;;;;;;;32.72;18.10;;;;;;;8.82;100.00;99842.75;5032675;28;20024;-77
2023/04/24 01:48:17;;;;;;;35.25;18.85;;;;;;;8.80;100.00;99840.19;5049736;28;20017;-77
2023/04/24 01:50:42;;;;;;;29.58;19.05;;;;;;;8.82;100.00;99842.75;5050121;28;20028;-77
2023/04/24 01:53:08;;;;;;;33.55;18.30;;;;;;;8.78;100.00;99844.81;5032632;28;20013;-76
2023/04/24 01:55:33;;;;;;;34.42;19.27;;;;;;;8.76;100.00;99836.06;5048937;28;20027;-77
2023/04/24 01:57:59;;;;;;;32.72;18.33;;;;;;;8.74;100.00;99841.53;5048938;28;20036;-76
2023/04/24 02:00:25;;;;;;;32.70;19.88;;;;;;;8.72;100.00;99854.19;5031883;28;20448;-77
2023/04/24 02:02:50;;;;;;;33.92;18.92;;;;;;;8.67;100.00;99845.69;5050292;28;20456;-76
2023/04/24 02:05:15;;;;;;;30.80;17.02;;;;;;;8.68;100.00;99852.75;5032430;28;20116;-76
2023/04/24 02:07:41;;;;;;;30.98;19.42;;;;;;;8.68;100.00;99852.75;5032146;28;20045;-77
2023/04/24 02:10:06;;;;;;;30.20;18.77;;;;;;;8.66;100.00;99854.69;5031095;28;20047;-77
2023/04/24 02:12:32;;;;;;;31.40;17.55;;;;;;;8.65;100.00;99852.97;5048768;28;20439;-77
2023/04/24 02:14:57;;;;;;;31.88;18.92;;;;;;;8.65;100.00;99852.97;5031278;28;20055;-76
2023/04/24 02:17:23;;;;;;;30.55;17.80;;;;;;;8.63;100.00;99854.09;5050517;28;20479;-77
2023/04/24 02:19:48;;;;;;;29.95;17.80;;;;;;;8.62;100.00;99863.13;5050341;28;20047;-77
2023/04/24 02:22:13;;;;;;;33.25;18.10;;;;;;;8.63;100.00;99864.81;5030588;28;20056;-77
2023/04/24 02:24:40;;;;;;;30.55;19.30;;;;;;;8.63;100.00;99860.31;5015503;28;20079;-76
2023/04/24 02:27:06;;;;;;;35.75;16.92;;;;;;;8.60;100.00;99855.19;5050462;28;20551;-79
2023/04/24 02:29:31;;;;;;;28.85;18.05;;;;;;;8.54;100.00;99853.03;5049438;28;20127;-77
2023/04/24 02:31:56;;;;;;;31.23;17.65;;;;;;;8.53;100.00;99859.34;5031594;28;20429;-77
2023/04/24 02:34:22;;;;;;;30.95;17.98;;;;;;;8.51;100.00;99847.94;5050181;28;20064;-76
2023/04/24 02:36:48;;;;;;;32.58;19.42;;;;;;;8.50;100.00;99855.09;5031638;28;20036;-77
2023/04/24 02:39:16;;;;;;;33.47;17.98;;;;;;;8.48;100.00;99845.50;5049144;28;20032;-76
2023/04/24 02:41:42;;;;;;;30.67;17.52;;;;;;;8.48;100.00;99848.19;5048478;28;20134;-76
2023/04/24 02:44:07;;;;;;;31.27;18.70;;;;;;;8.49;100.00;99841.81;5031217;28;20048;-77
2023/04/24 02:46:32;;;;;;;33.63;20.58;;;;;;;8.47;100.00;99846.47;5049856;28;20166;-77
2023/04/24 02:48:57;;;;;;;31.50;18.23;;;;;;;8.46;100.00;99842.91;5050244;28;20427;-77
2023/04/24 02:51:23;;;;;;;32.20;18.25;;;;;;;8.44;100.00;99833.28;5029744;28;20025;-78
2023/04/24 02:53:48;;;;;;;31.13;18.15;;;;;;;8.45;100.00;99845.72;5048874;28;20033;-77
2023/04/24 02:56:13;;;;;;;31.23;18.58;;;;;;;8.46;100.00;99842.06;5029917;28;20485;-77
2023/04/24 02:58:39;;;;;;;30.63;17.90;;;;;;;8.45;100.00;99830.53;5049764;28;20036;-77
2023/04/24 03:01:04;;;;;;;33.15;18.70;;;;;;;8.45;100.00;99824.28;5029537;28;20132;-77
2023/04/24 03:03:30;;;;;;;30.73;17.63;;;;;;;8.44;100.00;99831.50;5049223;28;20021;-78
2023/04/24 03:05:55;;;;;;;30.73;17.20;;;;;;;8.44;100.00;99835.97;5049406;28;20032;-77
2023/04/24 03:08:20;;;;;;;32.47;19.63;;;;;;;8.43;100.00;99831.59;5052825;28;20029;-77
2023/04/24 03:10:46;;;;;;;30.30;18.40;;;;;;;8.45;100.00;99840.38;5035601;28;20048;-78
2023/04/24 03:13:11;;;;;;;33.35;17.60;;;;;;;8.45;100.00;99840.38;5035290;28;20028;-77
2023/04/24 03:15:36;;;;;;;28.33;17.15;;;;;;;8.43;100.00;99836.94;5052307;28;20171;-77
2023/04/24 03:18:02;;;;;;;27.70;15.48;;;;;;;8.40;100.00;99830.00;5035598;28;20162;-77
2023/04/24 03:20:27;;;;;;;32.75;16.60;;;;;;;8.39;100.00;99841.69;5053433;28;20021;-78
2023/04/24 03:22:53;;;;;;;30.90;16.38;;;;;;;8.39;100.00;99831.84;5034773;28;20032;-78
2023/04/24 03:25:18;;;;;;;26.60;15.30;;;;;;;8.39;100.00;99836.34;5051823;28;20037;-78
2023/04/24 03:27:43;;;;;;;29.13;16.42;;;;;;;8.37;100.00;99836.44;5032672;28;20542;-78
2023/04/24 03:30:09;;;;;;;28.77;16.63;;;;;;;8.39;100.00;99839.88;5034421;28;20039;-78
2023/04/24 03:32:34;;;;;;;29.40;16.05;;;;;;;8.37;100.00;99846.31;5053494;28;20104;-78
2023/04/24 03:35:00;;;;;;;30.33;16.35;;;;;;;8.37;100.00;99839.13;5053108;28;20032;-78
2023/04/24 03:37:26;;;;;;;27.35;15.38;;;;;;;8.37;100.00;99839.13;5033301;28;20025;-77
2023/04/24 03:39:51;;;;;;;27.52;16.00;;;;;;;8.36;100.00;99832.09;5041727;28;20150;-78
2023/04/24 03:42:17;;;;;;;26.75;15.18;;;;;;;8.37;100.00;99828.41;5051430;28;20103;-77
2023/04/24 03:44:42;;;;;;;27.95;15.57;;;;;;;8.36;100.00;99823.19;5051725;28;20033;-78
2023/04/24 03:47:07;;;;;;;28.13;14.18;;;;;;;8.36;100.00;99828.53;5052866;28;20475;-78
2023/04/24 03:49:33;;;;;;;27.95;15.32;;;;;;;8.36;100.00;99834.75;5052320;28;20153;-78
2023/04/24 03:51:58;;;;;;;31.65;15.88;;;;;;;8.38;100.00;99834.63;5052225;28;20028;-79
2023/04/24 03:54:23;;;;;;;25.08;13.25;;;;;;;8.37;100.00;99825.72;5053361;28;20414;-78
2023/04/24 03:56:48;;;;;;;26.45;14.52;;;;;;;8.36;100.00;99832.09;5034672;28;20480;-78
2023/04/24 03:59:14;;;;;;;30.33;15.38;;;;;;;8.36;100.00;99829.41;5052946;28;20480;-78
2023/04/24 04:01:39;;;;;;;28.80;15.02;;;;;;;8.36;100.00;99840.13;5051909;28;20031;-78
2023/04/24 04:04:08;;;;;;;25.75;14.45;;;;;;;8.35;100.00;99833.03;5051937;28;20065;-78
2023/04/24 04:06:34;;;;;;;27.75;14.35;;;;;;;8.35;100.00;99835.72;5052874;28;20523;-78
2023/04/24 04:08:59;;;;;;;26.45;13.85;;;;;;;8.35;100.00;99824.19;5034854;28;20613;-78
2023/04/24 04:11:25;;;;;;;26.88;15.43;;;;;;;8.33;100.00;99832.34;5050885;28;20090;-78
2023/04/24 04:13:50;;;;;;;27.83;14.45;;;;;;;8.33;100.00;99829.66;5033315;28;20082;-78
2023/04/24 04:16:19;;;;;;;28.83;15.68;;;;;;;8.33;100.00;99842.16;5033909;28;20040;-78
2023/04/24 04:18:45;;;;;;;29.27;14.77;;;;;;;8.31;100.00;99849.47;5050640;28;20347;-77
2023/04/24 04:21:10;;;;;;;26.35;14.18;;;;;;;8.29;100.00;99848.78;5034381;28;20056;-78
2023/04/24 04:23:36;;;;;;;25.50;13.93;;;;;;;8.28;100.00;99849.72;5051027;28;20031;-77
2023/04/24 04:26:03;;;;;;;27.00;14.82;;;;;;;8.26;100.00;99851.66;5029042;28;20409;-77
2023/04/24 04:28:28;;;;;;;26.80;13.07;;;;;;;8.23;100.00;99837.56;5033702;28;20447;-77
2023/04/24 04:30:54;;;;;;;28.13;14.50;;;;;;;8.22;100.00;99845.72;5050806;28;20028;-78
2023/04/24 04:33:21;;;;;;;26.67;14.32;;;;;;;8.19;100.00;99852.16;5033133;28;20115;-77
2023/04/24 04:35:48;;;;;;;24.27;12.95;;;;;;;8.19;100.00;99851.31;5033709;28;20515;-78
2023/04/24 04:38:14;;;;;;;24.30;13.55;;;;;;;8.17;100.00;99848.75;5052414;28;20475;-78
2023/04/24 04:40:40;;;;;;;24.65;12.25;;;;;;;8.14;100.00;99853.50;5051886;28;20025;-77
2023/04/24 04:43:06;;;;;;;26.30;13.70;;;;;;;8.11;100.00;99862.63;5033124;28;20369;-77
2023/04/24 04:45:32;;;;;;;23.65;12.57;;;;;;;8.12;100.00;99863.47;5050147;28;20024;-77
2023/04/24 04:47:58;;;;;;;24.50;12.48;;;;;;;8.11;100.00;99859.09;5056597;28;20043;-77
2023/04/24 04:50:23;;;;;;;23.98;11.32;;;;;;;8.09;100.00;99864.56;5053346;28;20024;-77
2023/04/24 04:52:48;;;;;;;24.02;12.40;;;;;;;8.09;100.00;99863.72;5051976;28;20051;-77
2023/04/24 04:55:14;;;;;;;23.38;12.02;;;;;;;8.09;100.00;99867.25;5052705;28;20025;-77
2023/04/24 04:57:39;;;;;;;22.88;11.23;;;;;;;8.10;100.00;99873.47;5051375;28;20025;-76
2023/04/24 05:00:06;;;;;;;21.98;10.95;;;;;;;8.11;100.00;99872.47;5051163;28;20361;-77
2023/04/24 05:02:32;;;;;;;21.70;10.82;;;;;;;8.11;100.00;99875.16;5050687;28;20021;-76
2023/04/24 05:04:57;;;;;;;23.70;11.05;;;;;;;8.13;100.00;99879.41;5031548;28;20400;-77
2023/04/24 05:07:22;;;;;;;22.42;10.57;;;;;;;8.12;100.00;99877.69;5050404;28;20025;-77
2023/04/24 05:09:48;;;;;;;21.63;10.10;;;;;;;8.14;100.00;99870.41;5033217;28;20559;-77
2023/04/24 05:12:13;;;;;;;23.48;11.32;;;;;;;8.13;100.00;99878.56;5031964;28;20040;-77
2023/04/24 05:14:38;;;;;;;21.35;10.13;;;;;;;8.14;100.00;99881.13;5050977;28;20035;-77
2023/04/24 05:17:03;;;;;;;20.67;9.55;;;;;;;8.16;100.00;99881.84;5051082;28;20106;-77
2023/04/24 05:19:29;;;;;;;22.23;8.93;;;;;;;8.15;100.00;99881.97;5050082;28;20028;-77
2023/04/24 05:21:54;;;;;;;20.30;9.02;;;;;;;8.13;100.00;99874.06;5051079;28;20032;-77
2023/04/24 05:24:20;;;;;;;19.33;7.45;;;;;;;8.14;100.00;99883.81;5051453;28;20079;-77
2023/04/24 05:26:45;;;;;;;19.10;6.93;;;;;;;8.13;100.00;99879.41;5031942;28;20032;-77
2023/04/24 05:29:11;;;;;;;18.00;6.13;;;;;;;8.12;100.00;99898.28;5046516;28;20029;-76
2023/04/24 05:31:36;;;;;;;16.08;5.32;;;;;;;8.11;100.00;99905.47;5047301;28;20364;-77
2023/04/24 05:34:02;;;;;;;13.18;4.43;;;;;;;8.10;100.00;99905.59;5032779;28;20031;-76
2023/04/24 05:36:27;;;;;;;14.80;4.32;;;;;;;8.10;100.00;99910.94;5031848;28;20033;-76
2023/04/24 05:38:53;;;;;;;12.73;4.28;;;;;;;8.08;100.00;99912.84;5050898;28;20035;-76
2023/04/24 05:41:18;;;;;;;13.18;3.97;;;;;;;8.06;100.00;99910.31;5050412;28;20028;-77
2023/04/24 05:43:43;;;;;;;10.18;3.38;;;;;;;8.04;100.00;99905.06;5032075;28;20020;-77
2023/04/24 05:46:08;;;;;;;7.03;2.70;;;;;;;8.02;100.00;99925.75;5050646;28;20060;-76
2023/04/24 05:48:34;;;;;;;13.75;3.30;;;;;;;8.00;100.00;99916.97;5049110;28;20028;-75
2023/04/24 05:50:59;;;;;;;7.78;2.70;;;;;;;7.96;100.00;99926.22;5031540;28;20024;-77
2023/04/24 05:53:24;;;;;;;7.63;3.10;;;;;;;7.97;100.00;99922.56;5047571;28;20607;-77
2023/04/24 05:55:50;;;;;;;5.43;2.53;;;;;;;7.94;100.00;99938.03;5031252;28;20026;-77
2023/04/24 05:58:15;;;;;;;11.68;3.15;;;;;;;7.92;100.00;99938.16;5032083;28;20369;-76
2023/04/24 06:00:42;;;;;;;11.13;3.70;;;;;;;7.93;100.00;99945.19;5045103;28;20392;-76
2023/04/24 06:03:08;;;;;;;11.02;3.20;;;;;;;7.88;100.00;99936.66;5046602;28;20025;-77
2023/04/24 06:05:33;;;;;;;11.57;3.80;;;;;;;7.90;100.00;99942.75;5045514;28;20048;-77
2023/04/24 06:07:59;;;;;;;9.65;3.80;;;;;;;7.90;100.00;99941.91;5044900;28;20086;-76
2023/04/24 06:10:24;;;;;;;14.98;4.95;;;;;;;7.88;100.00;99956.25;5043798;28;20029;-76
2023/04/24 06:12:49;;;;;;;17.20;6.22;;;;;;;7.87;100.00;99949.16;5028993;28;20477;-77
2023/04/24 06:15:15;;;;;;;17.83;6.38;;;;;;;7.83;100.00;99946.84;5049900;28;20458;-76
2023/04/24 06:17:40;;;;;;;18.40;5.90;;;;;;;7.82;100.00;99955.88;5049160;28;20029;-77
2023/04/24 06:20:07;;;;;;;17.58;5.82;;;;;;;7.84;100.00;99959.28;5032163;28;20028;-76
2023/04/24 06:22:33;;;;;;;17.20;7.03;;;;;;;7.85;100.00;99971.69;5031592;28;20032;-77
2023/04/24 06:24:59;;;;;;;17.65;6.68;;;;;;;7.82;100.00;99975.44;5050546;28;20389;-78
2023/04/24 06:27:24;;;;;;;18.92;7.28;;;;;;;7.81;100.00;99981.75;5032800;28;20396;-77
2023/04/24 06:29:54;;;;;;;20.50;7.88;;;;;;;7.82;100.00;99986.13;5050825;28;20033;-77
2023/04/24 06:32:21;;;;;;;20.60;7.20;;;;;;;7.81;100.00;99995.13;5032546;28;20025;-77
2023/04/24 06:34:46;;;;;;;21.58;7.88;;;;;;;7.81;100.00;100011.16;5050924;28;20094;-77
2023/04/24 06:37:11;;;;;;;20.83;8.63;;;;;;;7.80;100.00;100017.47;5032818;28;20025;-77
2023/04/24 06:39:37;;;;;;;19.60;8.07;;;;;;;7.78;100.00;100029.28;5032743;28;20534;-77
2023/04/24 06:42:02;;;;;;;20.73;8.63;;;;;;;7.75;100.00;100041.06;5050058;28;20036;-77
2023/04/24 06:44:27;;;;;;;19.77;8.23;;;;;;;7.74;100.00;100044.69;5032472;28;20025;-77
2023/04/24 06:46:53;;;;;;;21.48;9.82;;;;;;;7.74;100.00;100046.53;5050623;28;20080;-76
2023/04/24 06:49:18;;;;;;;22.48;9.95;;;;;;;7.72;100.00;100051.13;5032537;28;20476;-76
2023/04/24 06:51:43;;;;;;;23.33;10.85;;;;;;;7.70;100.00;100064.59;5050591;28;20016;-77
2023/04/24 06:54:08;;;;;;;23.13;11.85;;;;;;;7.69;100.00;100070.94;5032656;28;20028;-77
2023/04/24 06:56:34;;;;;;;24.90;10.02;;;;;;;7.68;100.00;100079.94;5031928;28;20033;-77
2023/04/24 06:58:59;;;;;;;24.05;12.45;;;;;;;7.67;100.00;100096.94;5050294;28;20028;-77
2023/04/24 07:01:25;;;;;;;28.10;13.10;;;;;;;7.67;100.00;100103.16;5050536;28;20395;-77
2023/04/24 07:03:50;;;;;;;25.02;11.85;;;;;;;7.65;100.00;100097.03;5032178;28;20104;-77
2023/04/24 07:06:18;;;;;;;26.55;13.00;;;;;;;7.64;100.00;100123.91;5032463;28;20059;-77
2023/04/24 07:08:43;;;;;;;27.23;12.32;;;;;;;7.63;100.00;100128.41;5050476;28;20024;-77
2023/04/24 07:11:09;;;;;;;24.75;11.93;;;;;;;7.67;100.00;100126.34;5032379;28;20025;-77
2023/04/24 07:13:35;;;;;;;28.33;13.80;;;;;;;7.69;100.00;100137.81;5032518;28;20548;-77
2023/04/24 07:16:00;;;;;;;26.75;12.90;;;;;;;7.68;100.00;100152.97;5032268;28;20035;-77
2023/04/24 07:18:26;;;;;;;24.00;11.88;;;;;;;7.68;100.00;100147.63;5050148;28;20028;-77
2023/04/24 07:20:51;;;;;;;27.75;13.48;;;;;;;7.69;100.00;100164.56;5050521;28;20025;-77
2023/04/24 07:23:17;;;;;;;31.48;13.27;;;;;;;7.69;100.00;100170.75;5050095;28;20392;-77
2023/04/24 07:25:43;;;;;;;25.52;12.65;;;;;;;7.72;100.00;100166.13;5050154;28;20116;-77
2023/04/24 07:28:08;;;;;;;25.83;11.48;;;;;;;7.73;100.00;100178.53;5050282;28;20124;-77
2023/04/24 07:30:33;;;;;;;24.63;11.38;;;;;;;7.75;100.00;100187.34;5032441;28;20029;-77
2023/04/24 07:32:59;;;;;;;23.08;10.02;;;;;;;7.72;100.00;100192.88;5032222;28;20619;-77
2023/04/24 07:35:26;;;;;;;30.08;10.43;;;;;;;7.70;100.00;100191.19;5032142;28;20041;-77
2023/04/24 07:37:53;;;;;;;19.48;8.05;;;;;;;7.71;100.00;100208.09;5032458;28;20033;-77
2023/04/24 07:40:18;;;;;;;25.77;8.48;;;;;;;7.70;100.00;100214.38;5050247;28;20112;-77
2023/04/24 07:42:43;;;;;;;22.40;9.23;;;;;;;7.64;100.00;100222.84;5050223;28;20112;-77
2023/04/24 07:45:09;;;;;;;26.42;8.50;;;;;;;7.64;100.00;100226.41;5050106;28;20084;-77
2023/04/24 07:47:36;;;;;;;24.30;8.63;;;;;;;7.65;100.00;100230.78;5031889;28;20032;-77
2023/04/24 07:50:01;;;;;;;23.45;8.00;;;;;;;7.64;100.00;100249.59;5031985;28;20025;-78
2023/04/24 07:52:27;;;;;;;26.42;8.90;;;;;;;7.63;100.00;100258.59;5032105;28;20035;-77
2023/04/24 07:54:58;;;;;;;23.35;7.90;;;;;;;7.67;100.00;100254.72;5054040;28;20106;-77
2023/04/24 07:57:24;;;;;;;24.88;9.02;;;;;;;7.71;100.00;100269.59;5035828;28;20033;-78
2023/04/24 07:59:49;;;;;;;29.10;9.55;;;;;;;7.71;100.00;100266.94;5035669;28;20441;-77
2023/04/24 08:02:15;;;;;;;21.15;7.53;;;;;;;7.70;100.00;100274.09;5053651;28;20091;-78
2023/04/24 08:04:40;;;;;;;25.85;8.90;;;;;;;7.74;100.00;100271.22;5053661;28;20020;-78
2023/04/24 08:07:05;;;;;;;25.08;7.63;;;;;;;7.76;100.00;100279.97;5053549;28;20430;-78
2023/04/24 08:09:31;;;;;;;24.05;7.97;;;;;;;7.73;100.00;100289.09;5053412;28;20124;-77
2023/04/24 08:11:56;;;;;;;23.20;9.23;;;;;;;7.76;100.00;100288.88;5053338;28;20031;-78
2023/04/24 08:14:21;;;;;;;23.65;9.00;;;;;;;7.78;100.00;100286.94;5053398;28;20025;-78
2023/04/24 08:16:47;;;;;;;20.80;8.52;;;;;;;7.83;100.00;100295.50;5053270;28;20043;-78
2023/04/24 08:19:12;;;;;;;25.42;8.30;;;;;;;7.85;100.00;100306.94;5053400;28;20029;-78
2023/04/24 08:21:37;;;;;;;24.48;9.00;;;;;;;7.91;100.00;100302.97;5053240;28;20029;-78
2023/04/24 08:24:05;;;;;;;28.08;10.18;;;;;;;7.96;100.00;100305.31;5053066;28;20107;-77
2023/04/24 08:26:30;;;;;;;26.48;9.93;;;;;;;8.01;100.00;100313.91;5035011;28;20040;-77
2023/04/24 08:28:56;;;;;;;23.80;8.30;;;;;;;8.00;100.00;100318.38;5053085;28;20484;-78
2023/04/24 08:31:22;;;;;;;24.60;9.65;;;;;;;8.03;100.00;100328.00;5053010;28;20029;-78
2023/04/24 08:33:47;;;;;;;24.13;7.65;;;;;;;8.00;100.00;100331.75;5053070;28;20024;-78
2023/04/24 08:36:13;;;;;;;24.85;8.23;;;;;;;8.03;100.00;100331.53;5035060;28;20123;-78
2023/04/24 08:38:38;;;;;;;23.75;7.72;;;;;;;8.05;100.00;100334.97;5052900;28;20070;-77
2023/04/24 08:41:04;;;;;;;23.05;7.72;;;;;;;8.09;100.00;100342.78;5053138;28;20442;-78
2023/04/24 08:43:34;;;;;;;22.10;6.97;;;;;;;8.12;100.00;100345.22;5053276;28;20376;-78
2023/04/24 08:46:00;;;;;;;21.75;6.75;;;;;;;8.12;100.00;100369.31;5034826;28;20108;-78
2023/04/24 08:48:26;;;;;;;26.75;7.95;;;;;;;8.20;100.00;100366.97;5034811;28;20033;-78
2023/04/24 08:50:51;;;;;;;24.73;7.45;;;;;;;8.28;100.00;100369.94;5052754;28;20472;-78
2023/04/24 08:53:18;;;;;;;24.80;6.85;;;;;;;8.38;100.00;100378.19;5052904;28;20060;-78
2023/04/24 08:55:47;;;;;;;19.05;6.38;;;;;;;8.42;100.00;100376.13;5052707;28;20036;-78
2023/04/24 08:58:13;;;;;;;26.45;7.88;;;;;;;8.42;100.00;100393.06;5034955;28;20036;-78
2023/04/24 09:00:39;;;;;;;25.67;6.60;;;;;;;8.35;100.00;100392.63;5052652;28;20107;-78
2023/04/24 09:03:05;;;;;;;20.63;5.90;;;;;;;8.28;100.00;100390.50;5026718;28;20025;-78
2023/04/24 09:05:32;;;;;;;25.33;5.60;;;;;;;8.19;100.00;100397.38;5033782;28;20025;-78
2023/04/24 09:07:59;;;;;;;21.67;5.32;;;;;;;8.16;100.00;100398.44;5034338;28;20035;-78
2023/04/24 09:10:25;;;;;;;20.83;4.95;;;;;;;8.15;100.00;100406.56;5034610;28;20024;-78
2023/04/24 09:12:51;;;;;;;21.25;5.75;;;;;;;8.11;100.00;100408.63;5034427;28;20085;-77
2023/04/24 09:15:18;;;;;;;16.33;4.32;;;;;;;8.12;100.00;100410.31;5034345;28;20017;-78
2023/04/24 09:17:44;;;;;;;20.50;6.18;;;;;;;8.15;100.00;100417.28;5052304;28;20056;-77
2023/04/24 09:20:09;;;;;;;18.67;5.18;;;;;;;8.19;100.00;100413.44;5034189;28;20060;-78
2023/04/24 09:22:35;;;;;;;16.00;4.50;;;;;;;8.27;100.00;100420.91;5052252;28;20021;-78
2023/04/24 09:25:08;;;;;;;23.75;5.53;;;;;;;8.34;100.00;100428.41;5033898;28;20055;-78
2023/04/24 09:27:34;;;;;;;17.38;5.13;;;;;;;8.36;100.00;100431.84;5032337;28;20024;-78
2023/04/24 09:30:01;;;;;;;20.27;5.43;;;;;;;8.33;100.00;100439.22;5034186;28;20439;-78
2023/04/24 09:32:27;;;;;;;24.33;5.78;;;;;;;8.29;100.00;100446.63;5052019;28;20040;-78
2023/04/24 09:35:15;;;;;;;16.75;4.55;;;;;;;8.26;100.00;100446.84;5052141;28;20070;-78
2023/04/24 09:37:46;;;;;;;18.67;4.60;;;;;;;8.21;100.00;100467.72;5026219;28;20033;-78
2023/04/24 09:40:12;;;;;;;16.85;4.05;;;;;;;8.17;100.00;100469.75;5034047;28;20116;-78
2023/04/24 09:42:38;;;;;;;18.42;4.25;;;;;;;8.17;100.00;100469.75;5033984;28;20104;-78
2023/04/24 09:45:09;;;;;;;18.80;4.43;;;;;;;8.15;100.00;100476.16;5033904;28;20128;-78
2023/04/24 09:47:38;;;;;;;19.15;4.75;;;;;;;8.17;100.00;100480.47;5033723;28;20115;-78
2023/04/24 09:50:15;;;;;;;21.00;4.70;;;;;;;8.25;100.00;100482.59;5033689;28;20222;-78
2023/04/24 09:52:45;;;;;;;13.35;3.78;;;;;;;8.33;100.00;100480.25;5033654;28;20082;-78
2023/04/24 09:55:16;;;;;;;14.75;3.85;;;;;;;8.44;100.00;100473.28;5051988;28;20021;-79
2023/04/24 09:57:52;;;;;;;16.83;3.72;;;;;;;8.49;100.00;100500.63;5051649;28;20032;-78
2023/04/24 10:00:28;;;;;;;17.52;3.97;;;;;;;8.52;100.00;100495.03;5033545;28;20484;-78
2023/04/24 10:03:02;;;;;;;15.30;3.90;;;;;;;8.67;100.00;100496.66;5033241;28;20048;-79
2023/04/24 10:05:35;;;;;;;16.65;4.45;;;;;;;8.81;100.00;100502.84;5051473;28;20373;-78
2023/04/24 10:08:08;;;;;;;19.63;4.85;;;;;;;8.91;100.00;100503.91;5051350;28;20029;-78
2023/04/24 10:10:38;;;;;;;16.80;3.72;;;;;;;9.00;100.00;100505.91;5033578;28;20032;-79
2023/04/24 10:13:04;;;;;;;14.35;3.97;;;;;;;9.03;100.00;100502.16;5051359;28;20131;-78
2023/04/24 10:15:30;;;;;;;14.55;3.80;;;;;;;9.02;99.74;100504.00;5033314;28;20064;-78
2023/04/24 10:17:58;;;;;;;14.43;4.07;;;;;;;8.97;100.00;100507.97;5050410;28;20025;-78
2023/04/24 10:20:26;;;;;;;14.27;4.07;;;;;;;8.91;99.31;100507.44;5051294;28;20036;-78
2023/04/24 10:22:53;;;;;;;13.45;3.90;;;;;;;8.90;99.34;100518.25;5033209;28;20028;-78
2023/04/24 10:25:21;;;;;;;17.73;4.03;;;;;;;8.86;100.00;100523.00;5032880;28;20059;-79
2023/04/24 10:27:48;;;;;;;14.13;3.15;;;;;;;8.81;97.92;100522.44;5033158;28;20484;-78
2023/04/24 10:30:14;;;;;;;9.77;2.33;;;;;;;8.75;95.18;100533.59;5051141;28;20031;-78
2023/04/24 10:32:39;;;;;;;6.68;2.20;;;;;;;8.71;97.03;100546.38;5033207;28;20025;-78
2023/04/24 10:35:07;;;;;;;13.90;2.72;;;;;;;8.65;91.87;100537.91;5032938;28;20035;-79
2023/04/24 10:37:58;;;;;;;17.63;2.90;;;;;;;8.69;95.57;100547.44;5050953;28;20063;-78
2023/04/24 10:40:30;;;;;;;8.82;2.20;;;;;;;8.70;95.27;100541.13;5028576;28;20484;-78
2023/04/24 10:42:56;;;;;;;11.25;2.38;;;;;;;8.76;92.86;100558.59;5048364;28;20044;-78
2023/04/24 10:45:23;;;;;;;10.18;2.35;;;;;;;8.77;92.05;100557.63;5050644;28;20024;-78
2023/04/24 10:47:53;;;;;;;8.43;2.30;;;;;;;8.79;91.37;100558.38;5042630;28;20059;-78
2023/04/24 10:50:19;;;;;;;9.63;2.47;;;;;;;8.81;93.63;100556.44;5032341;28;20095;-78
2023/04/24 10:52:54;;;;;;;8.80;2.38;;;;;;;8.83;93.24;100558.06;5032719;28;20468;-79
2023/04/24 10:55:43;;;;;;;12.23;2.53;;;;;;;8.88;92.00;100565.75;5050919;28;20086;-78
2023/04/24 10:58:09;;;;;;;7.87;2.17;;;;;;;8.91;89.62;100565.53;5050926;28;20468;-78
2023/04/24 11:00:38;;;;;;;8.75;2.20;;;;;;;8.95;90.32;100559.00;5050760;28;20268;-78
2023/04/24 11:03:05;;;;;;;11.60;2.97;;;;;;;9.00;92.35;100570.25;5042338;28;20031;-78
2023/04/24 11:06:02;;;;;;;9.90;2.60;;;;;;;9.02;90.71;100560.28;5050554;28;20024;-78
2023/04/24 11:08:35;;;;;;;10.95;2.70;;;;;;;9.02;93.41;100568.31;5027544;28;20082;-77
2023/04/24 11:11:04;;;;;;;8.70;2.53;;;;;;;8.95;89.96;100559.00;5050767;28;20024;-77
2023/04/24 11:13:51;;;;;;;12.75;2.53;;;;;;;8.91;90.96;100574.44;5050671;28;20017;-78
2023/04/24 11:16:36;;;;;;;5.63;2.05;;;;;;;8.88;91.73;100579.16;5042569;28;20480;-78